createdAt,value
2018-09-17T00:02:26.607Z,1.90
2018-09-17T00:04:54.682Z,1.90
2018-09-17T00:07:22.759Z,1.87
2018-09-17T00:09:50.883Z,1.73
2018-09-17T00:12:18.962Z,2.20
2018-09-17T00:14:47.038Z,1.70
2018-09-17T00:17:15.142Z,1.90
2018-09-17T00:19:43.267Z,1.60
2018-09-17T00:22:11.339Z,1.87
2018-09-17T00:24:39.662Z,1.87
2018-09-17T00:27:07.797Z,2.27
2018-09-17T00:29:35.863Z,1.67
2018-09-17T00:32:03.934Z,2.27
2018-09-17T00:34:32.220Z,1.70
2018-09-17T00:37:00.307Z,2.10
2018-09-17T00:39:28.380Z,1.90
2018-09-17T00:41:56.474Z,2.00
2018-09-17T00:44:24.546Z,2.23
2018-09-17T00:46:52.611Z,2.23
2018-09-17T00:49:20.707Z,1.93
2018-09-17T00:51:48.779Z,2.20
2018-09-17T00:54:16.870Z,2.23
2018-09-17T00:56:44.959Z,2.23
2018-09-17T00:59:13.029Z,2.30
2018-09-17T01:01:41.417Z,1.93
2018-09-17T01:04:09.470Z,2.27
2018-09-17T01:06:37.595Z,2.20
2018-09-17T01:09:06.207Z,2.07
2018-09-17T01:11:34.326Z,2.57
2018-09-17T01:14:02.391Z,2.17
2018-09-17T01:16:30.503Z,2.50
2018-09-17T01:18:58.636Z,2.73
2018-09-17T01:21:26.702Z,2.27
2018-09-17T01:23:54.783Z,2.67
2018-09-17T01:26:22.855Z,2.90
2018-09-17T01:28:50.956Z,3.30
2018-09-17T01:31:19.047Z,4.20
2018-09-17T01:33:47.239Z,3.97
2018-09-17T01:36:15.318Z,3.77
2018-09-17T01:38:43.430Z,4.13
2018-09-17T01:41:11.505Z,3.40
2018-09-17T01:43:39.570Z,3.77
2018-09-17T01:46:07.691Z,4.23
2018-09-17T01:48:35.710Z,3.40
2018-09-17T01:51:03.886Z,3.53
2018-09-17T01:53:31.958Z,3.77
2018-09-17T01:56:00.379Z,3.77
2018-09-17T01:58:28.475Z,3.67
2018-09-17T02:00:56.574Z,3.83
2018-09-17T02:03:24.642Z,3.80
2018-09-17T02:05:52.743Z,4.17
2018-09-17T02:08:20.846Z,4.70
2018-09-17T02:10:48.923Z,3.40
2018-09-17T02:13:16.981Z,3.87
2018-09-17T02:15:45.035Z,4.00
2018-09-17T02:18:13.106Z,4.10
2018-09-17T02:20:41.174Z,3.67
2018-09-17T02:23:09.248Z,4.20
2018-09-17T02:25:37.373Z,3.83
2018-09-17T02:28:05.714Z,3.60
2018-09-17T02:30:33.815Z,4.10
2018-09-17T02:33:01.870Z,4.10
2018-09-17T02:35:29.985Z,4.20
2018-09-17T02:37:58.058Z,4.50
2018-09-17T02:40:26.138Z,4.63
2018-09-17T02:42:54.249Z,4.90
2018-09-17T02:45:22.323Z,4.83
2018-09-17T02:47:50.387Z,4.80
2018-09-17T02:50:18.477Z,5.30
2018-09-17T02:52:46.547Z,4.60
2018-09-17T02:55:14.632Z,4.83
2018-09-17T02:57:42.799Z,4.77
2018-09-17T03:00:10.894Z,4.87
2018-09-17T03:02:39.297Z,5.10
2018-09-17T03:05:07.842Z,5.00
2018-09-17T03:07:35.911Z,5.10
2018-09-17T03:10:03.995Z,4.63
2018-09-17T03:12:32.110Z,4.53
2018-09-17T03:15:10.327Z,4.97
2018-09-17T03:17:38.423Z,4.77
2018-09-17T03:20:06.506Z,5.23
2018-09-17T03:22:34.625Z,5.83
2018-09-17T03:25:02.727Z,5.20
2018-09-17T03:27:30.874Z,6.85
2018-09-17T03:29:58.942Z,5.43
2018-09-17T03:32:27.010Z,5.90
2018-09-17T03:34:55.078Z,5.73
2018-09-17T03:37:26.092Z,4.67
2018-09-17T03:39:54.325Z,5.37
2018-09-17T03:42:22.447Z,4.90
2018-09-17T03:44:50.526Z,5.53
2018-09-17T03:47:18.606Z,5.60
2018-09-17T03:49:46.669Z,6.13
2018-09-17T03:52:14.738Z,5.57
2018-09-17T03:54:42.900Z,5.07
2018-09-17T03:57:11.006Z,4.83
2018-09-17T03:59:39.099Z,4.93
2018-09-17T04:02:07.177Z,4.83
2018-09-17T04:04:35.273Z,4.90
2018-09-17T04:07:03.346Z,4.70
2018-09-17T04:09:31.467Z,4.87
2018-09-17T04:11:59.522Z,4.80
2018-09-17T04:14:27.628Z,5.27
2018-09-17T04:16:55.699Z,4.87
2018-09-17T04:19:23.806Z,5.13
2018-09-17T04:21:52.087Z,5.67
2018-09-17T04:24:20.157Z,4.93
2018-09-17T04:26:48.259Z,4.93
2018-09-17T04:29:16.349Z,4.80
2018-09-17T04:31:44.469Z,5.10
2018-09-17T04:34:12.539Z,5.00
2018-09-17T04:36:40.600Z,4.90
2018-09-17T04:39:10.347Z,5.70
2018-09-17T04:41:38.448Z,5.30
2018-09-17T04:44:06.600Z,5.50
2018-09-17T04:46:34.698Z,4.87
2018-09-17T04:49:02.819Z,5.50
2018-09-17T04:51:30.922Z,5.30
2018-09-17T04:53:59.012Z,5.30
2018-09-17T04:56:27.098Z,4.90
2018-09-17T04:58:55.172Z,5.37
2018-09-17T05:01:23.278Z,5.33
2018-09-17T05:03:51.347Z,5.17
2018-09-17T05:06:19.715Z,4.87
2018-09-17T05:08:47.786Z,5.33
2018-09-17T05:11:15.876Z,5.50
2018-09-17T05:13:44.027Z,5.53
2018-09-17T05:16:12.100Z,5.77
2018-09-17T05:18:40.176Z,5.73
2018-09-17T05:21:08.315Z,6.20
2018-09-17T05:23:36.484Z,5.77
2018-09-17T05:26:04.592Z,6.00
2018-09-17T05:28:32.670Z,5.60
2018-09-17T05:31:00.769Z,6.20
2018-09-17T05:33:28.871Z,5.97
2018-09-17T05:35:56.984Z,6.67
2018-09-17T05:38:25.164Z,6.73
2018-09-17T05:40:53.257Z,5.73
2018-09-17T05:43:21.337Z,6.33
2018-09-17T05:45:49.444Z,5.83
2018-09-17T05:48:17.551Z,6.60
2018-09-17T05:50:45.715Z,5.97
2018-09-17T05:53:13.822Z,6.40
2018-09-17T05:55:41.922Z,6.57
2018-09-17T05:58:10.015Z,6.17
2018-09-17T06:00:38.133Z,5.70
2018-09-17T06:03:06.216Z,6.03
2018-09-17T06:05:34.330Z,5.40
2018-09-17T06:08:02.410Z,6.10
2018-09-17T06:10:30.502Z,5.73
2018-09-17T06:12:58.574Z,6.27
2018-09-17T06:15:26.679Z,5.53
2018-09-17T06:17:54.756Z,6.30
2018-09-17T06:20:22.846Z,5.30
2018-09-17T06:22:50.968Z,5.77
2018-09-17T06:25:19.128Z,6.47
2018-09-17T06:27:47.227Z,6.40
2018-09-17T06:30:15.307Z,4.90
2018-09-17T06:32:43.505Z,5.30
2018-09-17T06:35:11.611Z,6.47
2018-09-17T06:37:39.800Z,6.70
2018-09-17T06:40:07.938Z,8.57
2018-09-17T06:42:36.022Z,6.37
2018-09-17T06:45:04.199Z,6.37
2018-09-17T06:47:32.207Z,6.30
2018-09-17T06:50:00.303Z,6.60
2018-09-17T06:52:28.419Z,7.13
2018-09-17T06:54:56.495Z,6.80
2018-09-17T06:57:24.599Z,6.57
2018-09-17T06:59:52.675Z,7.27
2018-09-17T07:02:20.769Z,7.10
2018-09-17T07:04:48.868Z,6.70
2018-09-17T07:07:16.938Z,6.73
2018-09-17T07:09:45.083Z,7.23
2018-09-17T07:12:13.170Z,6.50
2018-09-17T07:14:41.292Z,7.00
2018-09-17T07:17:09.364Z,5.90
2018-09-17T07:19:37.464Z,6.30
2018-09-17T07:22:05.547Z,7.45
2018-09-17T07:24:33.634Z,6.70
2018-09-17T07:27:01.763Z,8.15
2018-09-17T07:29:29.904Z,6.60
2018-09-17T07:31:58.071Z,7.63
2018-09-17T07:34:26.165Z,5.70
2018-09-17T07:36:54.255Z,6.13
2018-09-17T07:39:22.339Z,6.17
2018-09-17T07:41:50.419Z,5.90
2018-09-17T07:44:18.490Z,6.07
2018-09-17T07:46:46.606Z,5.93
2018-09-17T07:49:14.712Z,6.07
2018-09-17T07:51:42.967Z,5.67
2018-09-17T07:54:11.039Z,6.13
2018-09-17T07:56:39.131Z,5.67
2018-09-17T07:59:07.199Z,6.37
2018-09-17T08:01:35.316Z,5.50
2018-09-17T08:04:03.463Z,5.90
2018-09-17T08:06:31.587Z,5.47
2018-09-17T08:08:59.794Z,5.97
2018-09-17T08:11:27.965Z,5.70
2018-09-17T08:13:56.165Z,6.77
2018-09-17T08:16:24.283Z,5.80
2018-09-17T08:18:52.451Z,6.30
2018-09-17T08:21:20.665Z,5.33
2018-09-17T08:23:48.743Z,4.97
2018-09-17T08:26:16.855Z,5.33
2018-09-17T08:28:44.968Z,5.67
2018-09-17T08:31:13.099Z,4.50
2018-09-17T08:33:41.686Z,5.05
2018-09-17T08:36:09.847Z,4.55
2018-09-17T08:38:38.088Z,4.60
2018-09-17T08:41:06.299Z,5.65
2018-09-17T08:43:35.252Z,4.95
2018-09-17T08:46:03.337Z,6.10
2018-09-17T08:48:31.485Z,4.78
2018-09-17T08:50:59.599Z,4.45
2018-09-17T08:53:27.718Z,4.50
2018-09-17T08:55:59.810Z,4.58
2018-09-17T08:58:33.135Z,4.35
2018-09-17T09:01:02.738Z,4.03
2018-09-17T09:07:15.376Z,4.60
2018-09-17T09:09:48.709Z,4.37
2018-09-17T09:12:30.934Z,3.83
2018-09-17T09:17:55.412Z,3.45
2018-09-17T09:20:25.888Z,3.90
2018-09-17T09:23:02.396Z,3.77
2018-09-17T09:25:37.627Z,3.87
2018-09-17T09:28:10.213Z,3.90
2018-09-17T09:30:38.341Z,4.85
2018-09-17T09:33:06.454Z,4.05
2018-09-17T09:35:34.551Z,3.83
2018-09-17T09:38:02.768Z,3.55
2018-09-17T09:40:30.876Z,3.42
2018-09-17T09:42:59.010Z,2.77
2018-09-17T09:45:27.092Z,3.75
2018-09-17T09:47:55.188Z,3.50
2018-09-17T09:50:23.278Z,3.50
2018-09-17T09:52:51.441Z,3.00
2018-09-17T09:55:19.535Z,2.92
2018-09-17T09:57:47.621Z,2.87
2018-09-17T10:00:21.107Z,3.22
2018-09-17T10:02:54.571Z,3.40
2018-09-17T10:05:22.827Z,3.08
2018-09-17T10:07:52.098Z,2.45
2018-09-17T10:10:25.757Z,2.92
2018-09-17T10:12:59.267Z,2.50
2018-09-17T10:15:32.828Z,2.37
2018-09-17T10:18:06.458Z,2.60
2018-09-17T10:20:34.596Z,3.15
2018-09-17T10:23:02.702Z,2.70
2018-09-17T10:25:30.776Z,2.52
2018-09-17T10:27:58.895Z,2.72
2018-09-17T10:30:26.979Z,2.33
2018-09-17T10:32:55.074Z,2.55
2018-09-17T10:35:23.195Z,2.60
2018-09-17T10:37:51.357Z,2.85
2018-09-17T10:40:19.515Z,3.45
2018-09-17T10:42:47.627Z,2.37
2018-09-17T10:45:15.915Z,2.77
2018-09-17T10:47:44.243Z,2.22
2018-09-17T10:50:12.459Z,2.33
2018-09-17T10:52:41.023Z,2.40
2018-09-17T10:55:09.112Z,2.58
2018-09-17T10:57:37.376Z,2.47
2018-09-17T11:00:05.481Z,2.87
2018-09-17T11:02:33.586Z,2.20
2018-09-17T11:05:01.775Z,2.60
2018-09-17T11:07:29.877Z,2.42
2018-09-17T11:09:58.011Z,3.00
2018-09-17T11:12:26.237Z,2.33
2018-09-17T11:14:54.338Z,2.75
2018-09-17T11:17:22.445Z,2.15
2018-09-17T11:19:50.543Z,2.12
2018-09-17T11:22:21.975Z,2.25
2018-09-17T11:24:58.533Z,2.10
2018-09-17T11:27:26.684Z,2.20
2018-09-17T11:30:12.067Z,1.92
2018-09-17T11:32:40.172Z,2.45
2018-09-17T11:35:08.267Z,2.70
2018-09-17T11:37:36.600Z,2.20
2018-09-17T11:40:04.740Z,2.80
2018-09-17T11:42:32.863Z,2.90
2018-09-17T11:45:01.907Z,2.05
2018-09-17T11:47:30.104Z,2.30
2018-09-17T11:49:58.928Z,3.05
2018-09-17T11:52:27.040Z,2.50
2018-09-17T11:54:55.172Z,1.90
2018-09-17T11:57:23.254Z,1.90
2018-09-17T11:59:51.465Z,2.47
2018-09-17T12:02:26.976Z,1.90
2018-09-17T12:04:59.111Z,2.00
2018-09-17T12:07:33.884Z,1.72
2018-09-17T12:10:02.061Z,1.50
2018-09-17T12:12:40.660Z,1.60
2018-09-17T12:15:09.419Z,2.00
2018-09-17T12:17:37.546Z,1.60
2018-09-17T12:20:07.081Z,2.00
2018-09-17T12:23:07.166Z,1.87
2018-09-17T12:25:35.528Z,1.50
2018-09-17T12:28:04.044Z,2.08
2018-09-17T12:30:32.257Z,1.57
2018-09-17T12:33:00.798Z,1.85
2018-09-17T12:35:29.755Z,1.60
2018-09-17T12:37:58.731Z,1.65
2018-09-17T12:40:36.552Z,2.15
2018-09-17T12:43:04.898Z,1.62
2018-09-17T12:45:33.037Z,1.90
2018-09-17T12:48:06.780Z,1.95
2018-09-17T12:50:34.870Z,1.85
2018-09-17T12:53:02.979Z,1.67
2018-09-17T12:55:31.123Z,1.65
2018-09-17T12:57:59.284Z,2.00
2018-09-17T13:00:41.268Z,1.87
2018-09-17T13:03:09.407Z,2.20
2018-09-17T13:05:39.738Z,1.98
2018-09-17T13:08:08.761Z,1.82
2018-09-17T13:10:41.657Z,1.67
2018-09-17T13:13:12.911Z,2.05
2018-09-17T13:15:46.356Z,1.67
2018-09-17T13:18:14.450Z,2.33
2018-09-17T13:20:42.723Z,1.65
2018-09-17T13:23:10.992Z,1.87
2018-09-17T13:25:39.127Z,2.00
2018-09-17T13:28:10.511Z,2.10
2018-09-17T13:30:38.628Z,2.20
2018-09-17T13:33:06.726Z,2.08
2018-09-17T13:35:34.838Z,2.10
2018-09-17T13:38:03.101Z,2.05
2018-09-17T13:40:31.187Z,1.90
2018-09-17T13:42:59.390Z,2.10
2018-09-17T13:45:27.691Z,2.20
2018-09-17T13:47:55.826Z,2.00
2018-09-17T13:50:23.899Z,1.80
2018-09-17T13:52:52.010Z,1.82
2018-09-17T13:55:22.066Z,1.80
2018-09-17T13:57:50.491Z,1.98
2018-09-17T14:00:18.704Z,2.10
2018-09-17T14:02:46.901Z,1.92
2018-09-17T14:05:15.072Z,1.75
2018-09-17T14:07:43.294Z,1.85
2018-09-17T14:10:11.427Z,2.12
2018-09-17T14:12:39.547Z,2.10
2018-09-17T14:15:07.680Z,2.00
2018-09-17T14:17:35.789Z,1.87
2018-09-17T14:20:03.919Z,1.90
2018-09-17T14:22:32.019Z,2.30
2018-09-17T14:25:00.091Z,2.00
2018-09-17T14:27:28.176Z,2.37
2018-09-17T14:29:56.304Z,1.95
2018-09-17T14:32:29.931Z,1.87
2018-09-17T14:34:58.071Z,1.67
2018-09-17T14:37:26.178Z,2.45
2018-09-17T14:39:58.252Z,2.50
2018-09-17T14:42:26.419Z,2.10
2018-09-17T14:44:54.495Z,2.20
2018-09-17T14:47:22.624Z,1.87
2018-09-17T14:49:50.766Z,2.27
2018-09-17T14:52:18.891Z,2.10
2018-09-17T14:54:47.041Z,2.22
2018-09-17T14:57:15.259Z,2.33
2018-09-17T14:59:43.300Z,1.92
2018-09-17T15:02:11.411Z,2.25
2018-09-17T15:04:39.788Z,3.05
2018-09-17T15:07:07.899Z,2.45
2018-09-17T15:09:35.984Z,2.42
2018-09-17T15:12:04.132Z,2.20
2018-09-17T15:14:32.195Z,2.85
2018-09-17T15:17:00.311Z,3.10
2018-09-17T15:19:28.421Z,2.60
2018-09-17T15:21:56.569Z,3.42
2018-09-17T15:24:24.810Z,2.95
2018-09-17T15:26:53.051Z,3.10
2018-09-17T15:29:21.277Z,2.52
2018-09-17T15:31:49.541Z,3.25
2018-09-17T15:34:17.721Z,2.95
2018-09-17T15:36:46.154Z,3.27
2018-09-17T15:39:14.905Z,3.30
2018-09-17T15:41:43.008Z,3.20
2018-09-17T15:44:11.637Z,3.22
2018-09-17T15:46:39.737Z,3.30
2018-09-17T15:49:07.911Z,3.12
2018-09-17T15:51:36.001Z,2.15
2018-09-17T15:54:04.081Z,2.52
2018-09-17T15:56:32.215Z,3.30
2018-09-17T15:59:00.369Z,3.05
2018-09-17T16:01:28.482Z,2.67
2018-09-17T16:03:56.879Z,2.80
2018-09-17T16:06:25.001Z,1.98
2018-09-17T16:08:53.119Z,3.02
2018-09-17T16:11:21.278Z,2.27
2018-09-17T16:13:49.401Z,2.47
2018-09-17T16:16:17.523Z,2.98
2018-09-17T16:18:45.627Z,2.77
2018-09-17T16:21:13.783Z,2.85
2018-09-17T16:23:41.864Z,2.87
2018-09-17T16:26:10.143Z,2.27
2018-09-17T16:28:38.499Z,2.77
2018-09-17T16:31:07.148Z,3.05
2018-09-17T16:33:36.508Z,2.77
2018-09-17T16:36:04.607Z,2.60
2018-09-17T16:38:32.750Z,2.40
2018-09-17T16:41:00.957Z,3.37
2018-09-17T16:43:29.114Z,2.90
2018-09-17T16:45:58.488Z,3.70
2018-09-17T16:48:26.712Z,3.67
2018-09-17T16:50:54.845Z,3.33
2018-09-17T16:53:23.220Z,2.95
2018-09-17T16:55:51.296Z,3.22
2018-09-17T16:58:19.440Z,3.10
2018-09-17T17:00:47.527Z,2.85
2018-09-17T17:03:16.215Z,2.70
2018-09-17T17:05:44.312Z,2.60
2018-09-17T17:08:12.358Z,2.85
2018-09-17T17:10:40.556Z,3.10
2018-09-17T17:13:08.907Z,2.60
2018-09-17T17:15:37.129Z,3.00
2018-09-17T17:18:05.573Z,5.65
2018-09-17T17:20:33.639Z,3.77
2018-09-17T17:23:01.751Z,3.42
2018-09-17T17:25:29.944Z,6.67
2018-09-17T17:27:58.160Z,5.10
2018-09-17T17:30:26.223Z,4.42
2018-09-17T17:32:54.326Z,3.58
2018-09-17T17:35:22.425Z,3.37
2018-09-17T17:37:50.532Z,2.98
2018-09-17T17:40:18.714Z,3.00
2018-09-17T17:42:46.764Z,3.12
2018-09-17T17:45:14.922Z,2.87
2018-09-17T17:47:43.027Z,2.40
2018-09-17T17:50:11.153Z,2.27
2018-09-17T17:52:39.256Z,2.42
2018-09-17T17:55:07.356Z,2.22
2018-09-17T17:57:35.501Z,2.30
2018-09-17T18:00:06.483Z,2.70
2018-09-17T18:02:34.595Z,2.70
2018-09-17T18:05:02.717Z,3.02
2018-09-17T18:07:30.924Z,2.62
2018-09-17T18:09:59.005Z,2.10
2018-09-17T18:12:27.263Z,2.60
2018-09-17T18:14:55.368Z,3.00
2018-09-17T18:17:23.499Z,1.98
2018-09-17T18:19:51.604Z,2.87
2018-09-17T18:22:20.211Z,2.25
2018-09-17T18:24:48.308Z,2.10
2018-09-17T18:27:16.566Z,3.22
2018-09-17T18:29:44.656Z,2.45
2018-09-17T18:32:12.759Z,3.15
2018-09-17T18:34:40.914Z,3.72
2018-09-17T18:37:09.037Z,3.67
2018-09-17T18:39:37.286Z,3.10
2018-09-17T18:42:05.505Z,2.47
2018-09-17T18:44:33.616Z,3.15
2018-09-17T18:47:02.027Z,2.60
2018-09-17T18:49:30.215Z,2.37
2018-09-17T18:51:58.329Z,2.52
2018-09-17T18:54:26.441Z,2.25
2018-09-17T18:56:54.597Z,2.80
2018-09-17T18:59:22.615Z,2.60
2018-09-17T19:01:50.716Z,2.77
2018-09-17T19:04:18.843Z,2.72
2018-09-17T19:06:46.985Z,2.22
2018-09-17T19:09:15.207Z,2.60
2018-09-17T19:11:43.437Z,3.70
2018-09-17T19:14:17.075Z,2.70
2018-09-17T19:16:49.327Z,3.05
2018-09-17T19:19:17.520Z,2.77
2018-09-17T19:21:51.536Z,2.90
2018-09-17T19:24:19.575Z,3.02
2018-09-17T19:26:47.631Z,3.12
2018-09-17T19:29:16.110Z,3.30
2018-09-17T19:31:44.254Z,3.47
2018-09-17T19:34:12.377Z,2.98
2018-09-17T19:36:40.517Z,3.25
2018-09-17T19:39:14.032Z,3.45
2018-09-17T19:41:42.925Z,3.45
2018-09-17T19:44:11.097Z,3.40
2018-09-17T19:46:39.186Z,2.87
2018-09-17T19:49:07.337Z,2.95
2018-09-17T19:51:40.767Z,3.52
2018-09-17T19:54:08.965Z,2.83
2018-09-17T19:56:37.051Z,2.65
2018-09-17T19:59:10.641Z,2.95
2018-09-17T20:01:38.781Z,3.25
2018-09-17T20:04:12.382Z,2.77
2018-09-17T20:06:40.504Z,3.27
2018-09-17T20:09:09.787Z,3.30
2018-09-17T20:11:38.172Z,3.60
2018-09-17T20:14:06.346Z,3.52
2018-09-17T20:16:34.448Z,3.40
2018-09-17T20:19:02.576Z,3.40
2018-09-17T20:21:30.662Z,3.25
2018-09-17T20:23:58.790Z,3.50
2018-09-17T20:26:27.046Z,3.40
2018-09-17T20:28:55.143Z,3.98
2018-09-17T20:31:23.253Z,4.00
2018-09-17T20:33:51.326Z,4.33
2018-09-17T20:36:19.431Z,7.00
2018-09-17T20:38:47.703Z,6.33
2018-09-17T20:41:15.757Z,5.13
2018-09-17T20:43:43.881Z,5.20
2018-09-17T20:46:12.076Z,4.70
2018-09-17T20:48:40.275Z,3.57
2018-09-17T20:51:08.372Z,3.00
2018-09-17T20:53:36.565Z,3.33
2018-09-17T20:56:04.798Z,3.50
2018-09-17T20:58:33.093Z,3.10
2018-09-17T21:01:01.399Z,2.73
2018-09-17T21:03:29.491Z,2.70
2018-09-17T21:05:57.631Z,3.00
2018-09-17T21:08:25.821Z,3.10
2018-09-17T21:10:53.906Z,2.57
2018-09-17T21:13:22.034Z,2.50
2018-09-17T21:15:50.133Z,2.30
2018-09-17T21:18:18.337Z,2.53
2018-09-17T21:20:46.399Z,2.50
2018-09-17T21:23:14.580Z,2.73
2018-09-17T21:25:42.663Z,3.13
2018-09-17T21:28:10.777Z,2.73
2018-09-17T21:30:38.883Z,3.03
2018-09-17T21:33:06.988Z,3.23
2018-09-17T21:35:35.072Z,2.80
2018-09-17T21:38:03.172Z,3.10
2018-09-17T21:40:31.324Z,3.00
2018-09-17T21:42:59.674Z,2.80
2018-09-17T21:45:27.532Z,2.77
2018-09-17T21:47:55.809Z,2.97
2018-09-17T21:50:23.884Z,4.37
2018-09-17T21:52:51.960Z,4.73
2018-09-17T21:55:20.486Z,3.87
2018-09-17T21:57:48.554Z,2.77
2018-09-17T22:00:21.956Z,2.87
2018-09-17T22:02:50.883Z,2.87
2018-09-17T22:05:19.007Z,3.40
2018-09-17T22:07:48.350Z,2.83
2018-09-17T22:10:17.030Z,3.50
2018-09-17T22:12:48.070Z,3.30
2018-09-17T22:15:19.589Z,3.67
2018-09-17T22:17:48.100Z,3.33
2018-09-17T22:20:16.218Z,3.33
2018-09-17T22:22:45.204Z,3.60
2018-09-17T22:25:13.262Z,3.40
2018-09-17T22:27:41.382Z,3.60
2018-09-17T22:30:09.562Z,3.27
2018-09-17T22:32:37.638Z,3.93
2018-09-17T22:35:05.778Z,3.60
2018-09-17T22:37:34.370Z,3.90
2018-09-17T22:40:02.434Z,3.63
2018-09-17T22:42:31.026Z,3.53
2018-09-17T22:44:59.194Z,3.97
2018-09-17T22:47:27.302Z,3.60
2018-09-17T22:49:55.439Z,3.47
2018-09-17T22:52:23.750Z,3.70
2018-09-17T22:54:51.854Z,4.00
2018-09-17T22:57:19.926Z,3.40
2018-09-17T22:59:48.013Z,4.20
2018-09-17T23:02:16.099Z,3.87
2018-09-17T23:04:44.174Z,3.70
2018-09-17T23:07:12.350Z,3.80
2018-09-17T23:09:40.421Z,3.97
2018-09-17T23:12:08.516Z,5.20
2018-09-17T23:14:36.669Z,4.13
2018-09-17T23:17:04.741Z,3.50
2018-09-17T23:19:32.810Z,3.87
2018-09-17T23:22:01.000Z,3.97
2018-09-17T23:24:29.077Z,4.07
2018-09-17T23:26:57.157Z,4.07
2018-09-17T23:29:25.256Z,4.70
2018-09-17T23:31:53.352Z,3.87
2018-09-17T23:34:21.459Z,4.53
2018-09-17T23:36:49.604Z,4.17
2018-09-17T23:39:17.689Z,3.87
2018-09-17T23:41:45.772Z,3.53
2018-09-17T23:44:13.846Z,4.13
2018-09-17T23:46:41.915Z,3.33
2018-09-17T23:49:09.978Z,3.70
2018-09-17T23:51:38.090Z,3.57
2018-09-17T23:54:06.208Z,3.67
2018-09-17T23:56:34.308Z,4.20
2018-09-17T23:59:02.638Z,4.08
